Seabourn Spirit — C6FR4 — position and weather

sailwx.info

Track history (hours):
 
Tides and Currents Weather Stations Pressure Air Temp Water Temp Dewpoint Dewpoint Depression Visibility Wind Speed Wind Dir Waves Ship Positions

Seabourn Spirit

Operator: Cunard Seabourn

Last reported at 2018-Aug-17 22:42 UTC. Time now 2018-Aug-18 00:46 UTC.
Position N 56°30' W 002°06'.

Length 133 m; draft 5.7 m.

Type: Ship. MMSI: 311083000.

Date/timePositionNaut miles runAvg speedWind from/ knotsBaromVisibWave heightAir tempDewpointWater temp
2018-Aug-17 22:42N 56°30' W 002°06'312.8
2018-Aug-17 22:30N 56°28' W 002°09'612.6
2018-Aug-17 22:00N 56°24' W 002°16'712.5
2018-Aug-17 21:24N 56°18' W 002°25'512.5
2018-Aug-17 21:00N 56°15' W 002°32'612.8
2018-Aug-17 20:31N 56°11' W 002°41'612.7
2018-Aug-17 20:00N 56°07' W 002°50'612.6
2018-Aug-17 19:30N 56°03' W 002°59'611.4
2018-Aug-17 19:00N 56°01' W 003°08'2 3.9
2018-Aug-17 18:30N 55°59' W 003°11'0 0.6
2018-Aug-17 17:58N 55°59' W 003°11'0 0.3
2018-Aug-17 17:29N 55°59' W 003°11'0 0.0
2018-Aug-17 16:59N 55°59' W 003°11'0 0.0
2018-Aug-17 16:29N 55°59' W 003°11'0 0.0
2018-Aug-17 15:58N 55°59' W 003°11'0 0.0
2018-Aug-17 15:28N 55°59' W 003°11'0 0.0
2018-Aug-17 14:58N 55°59' W 003°11'0 0.0
2018-Aug-17 13:59N 55°59' W 003°11'0 0.0
2018-Aug-17 13:28N 55°59' W 003°11'0 0.0
2018-Aug-17 12:59N 55°59' W 003°11'0 0.0
2018-Aug-17 12:29N 55°59' W 003°11'0 0.0
2018-Aug-17 11:59N 55°59' W 003°11'0 0.0
2018-Aug-17 11:29N 55°59' W 003°11'0 0.0
2018-Aug-17 10:58N 55°59' W 003°11'0 0.0
2018-Aug-17 10:28N 55°59' W 003°11'0 0.0
2018-Aug-17 09:58N 55°59' W 003°11'0 0.0
2018-Aug-17 09:28N 55°59' W 003°11'0 0.0
2018-Aug-17 08:58N 55°59' W 003°11'0 0.0
2018-Aug-17 08:28N 55°59' W 003°11'0 0.0
2018-Aug-17 07:58N 55°59' W 003°11'0 0.0
2018-Aug-17 07:28N 55°59' W 003°11'0 0.0
2018-Aug-17 06:58N 55°59' W 003°11'0 0.0
2018-Aug-17 06:28N 55°59' W 003°11'0 0.0
2018-Aug-17 05:58N 55°59' W 003°11'0 0.0
2018-Aug-17 05:28N 55°59' W 003°11'0 0.0
2018-Aug-17 04:58N 55°59' W 003°11'0 0.0
2018-Aug-17 04:28N 55°59' W 003°11'0 0.0
2018-Aug-17 03:58N 55°59' W 003°11'0 0.0
2018-Aug-17 03:28N 55°59' W 003°11'0 0.0
2018-Aug-17 02:58N 55°59' W 003°11'0 0.0
2018-Aug-17 02:28N 55°59' W 003°11'0 0.0
2018-Aug-17 01:58N 55°59' W 003°11'0 0.0
2018-Aug-17 01:28N 55°59' W 003°11'0 0.0
2018-Aug-17 00:58N 55°59' W 003°11'0 0.0
2018-Aug-17 00:28N 55°59' W 003°11'0 0.0
2018-Aug-16 23:58N 55°59' W 003°11'0 0.0
2018-Aug-16 23:28N 55°59' W 003°11'0 0.0
2018-Aug-16 22:58N 55°59' W 003°11'0 0.0
2018-Aug-16 22:28N 55°59' W 003°11'0 0.0
2018-Aug-16 21:58N 55°59' W 003°11'0 0.0
2018-Aug-16 21:28N 55°59' W 003°11'0 0.0
2018-Aug-16 20:58N 55°59' W 003°11'0 0.0
2018-Aug-16 20:28N 55°59' W 003°11'0 0.0
2018-Aug-16 19:58N 55°59' W 003°11'0 0.0
2018-Aug-16 19:28N 55°59' W 003°11'0 0.0
2018-Aug-16 18:58N 55°59' W 003°11'0 0.0
2018-Aug-16 18:28N 55°59' W 003°11'0 0.0
2018-Aug-16 17:58N 55°59' W 003°11'0 0.0
2018-Aug-16 17:28N 55°59' W 003°11'0 0.0
2018-Aug-16 16:58N 55°59' W 003°11'0 0.0
2018-Aug-16 16:28N 55°59' W 003°11'0 0.0
2018-Aug-16 15:58N 55°59' W 003°11'0 0.0
2018-Aug-16 15:28N 55°59' W 003°11'0 0.0
2018-Aug-16 14:58N 55°59' W 003°11'0 0.0
2018-Aug-16 14:29N 55°59' W 003°11'0 0.7
2018-Aug-16 14:00N 55°59' W 003°11'0 0.2
2018-Aug-16 13:30N 55°59' W 003°11'1 2.1
2018-Aug-16 13:00N 56°00' W 003°12'1 2.3
2018-Aug-16 12:30N 56°01' W 003°10'4 7.2
2018-Aug-16 12:00N 56°02' W 003°04'4 8.4
2018-Aug-16 11:31N 56°04' W 002°58'5 9.7
2018-Aug-16 11:01N 56°07' W 002°51'5 9.8
2018-Aug-16 10:30N 56°10' W 002°43'510.3
2018-Aug-16 10:00N 56°13' W 002°36'5 9.6
2018-Aug-16 09:30N 56°16' W 002°29'510.7
2018-Aug-16 09:00N 56°19' W 002°22'611.1
2018-Aug-16 08:30N 56°23' W 002°15'3411.3
2018-Aug-16 05:32N 56°53' W 001°47'112.4
2018-Aug-16 05:30N 56°54' W 001°47'612.2
2018-Aug-16 05:01N 56°59' W 001°43'612.5
2018-Aug-16 04:30N 57°05' W 001°40'815.3
2018-Aug-16 04:00N 57°13' W 001°39'815.4
2018-Aug-16 03:30N 57°20' W 001°38'816.0
2018-Aug-16 03:01N 57°28' W 001°37'816.2
2018-Aug-16 02:30N 57°36' W 001°40'63 2.2
2018-Aug-14 21:48N 58°27' W 002°52'3 9.6
2018-Aug-14 21:31N 58°30' W 002°50'5 9.1
2018-Aug-14 21:00N 58°34' W 002°47'4 8.7
2018-Aug-14 20:30N 58°38' W 002°45'4 8.6
2018-Aug-14 20:00N 58°42' W 002°43'4 8.3
2018-Aug-14 19:30N 58°46' W 002°40'6 8.3
2018-Aug-14 18:47N 58°52' W 002°37'7 9.9
2018-Aug-14 18:02N 58°59' W 002°39'0 9.9
2018-Aug-14 18:00N 58°59' W 002°40'510.4
2018-Aug-14 17:30N 59°01' W 002°50'4 8.5
2018-Aug-14 17:00N 59°01' W 002°58'1 1.9
2018-Aug-14 16:30N 58°60' W 002°58'0 0.0
2018-Aug-14 16:00N 58°60' W 002°58'0 0.0
2018-Aug-14 15:30N 58°60' W 002°58'0 0.0
2018-Aug-14 15:00N 58°60' W 002°58'0 0.0
2018-Aug-14 14:30N 58°60' W 002°58'0 0.0
2018-Aug-14 14:00N 58°60' W 002°58'0 0.0
2018-Aug-14 13:30N 58°60' W 002°58'0 0.0
2018-Aug-14 13:00N 58°60' W 002°58'0 0.0
2018-Aug-14 12:30N 58°60' W 002°58'0 0.0
2018-Aug-14 12:00N 58°60' W 002°58'0 0.0
2018-Aug-14 11:30N 58°60' W 002°58'0 0.0
2018-Aug-14 11:00N 58°60' W 002°58'0 0.0
2018-Aug-14 10:30N 58°60' W 002°58'0 0.0
2018-Aug-14 10:00N 58°60' W 002°58'1 2.4
2018-Aug-14 09:31N 59°01' W 002°57'5 9.0
2018-Aug-14 09:00N 59°00' W 002°49'5 9.0
2018-Aug-14 08:30N 58°60' W 002°40'5 8.5
2018-Aug-14 07:53N 58°55' W 002°35'3 9.4
2018-Aug-14 07:30N 58°51' W 002°37'5 9.0
2018-Aug-14 07:00N 58°48' W 002°42'510.2
2018-Aug-14 06:30N 58°44' W 002°48'510.3
2018-Aug-14 06:00N 58°43' W 002°58'4 8.4
2018-Aug-14 05:30N 58°43' W 003°06'2 4.3
2018-Aug-14 05:00N 58°43' W 003°10'4 7.3
2018-Aug-14 04:30N 58°43' W 003°17'4 8.5
2018-Aug-14 04:00N 58°43' W 003°25'810.7
2018-Aug-14 03:13N 58°43' W 003°42'  
2018-Aug-11 19:55N 60°49' E 004°17'512.7
2018-Aug-11 19:30N 60°50' E 004°28'611.9
2018-Aug-11 19:00N 60°52' E 004°39'611.4
2018-Aug-11 18:30N 60°57' E 004°43'612.9
2018-Aug-11 18:00N 61°02' E 004°53'612.1
2018-Aug-11 17:30N 61°05' E 005°03'612.1
2018-Aug-11 17:00N 61°05' E 005°16'612.7
2018-Aug-11 16:30N 61°04' E 005°29'612.8
2018-Aug-11 16:00N 61°07' E 005°41'612.5
2018-Aug-11 15:30N 61°08' E 005°54'612.9
2018-Aug-11 15:00N 61°08' E 006°07'612.7
2018-Aug-11 14:30N 61°07' E 006°20'611.1
2018-Aug-11 14:00N 61°07' E 006°31'510.5
2018-Aug-11 13:29N 61°11' E 006°40'612.1
2018-Aug-11 12:59N 61°09' E 006°51'612.2
2018-Aug-11 12:30N 61°05' E 006°60'612.1
2018-Aug-11 12:00N 60°59' E 007°04'510.7
2018-Aug-11 11:30N 60°54' E 007°10'3 5.2
2018-Aug-11 10:58N 60°52' E 007°07'0 0.0
2018-Aug-11 10:28N 60°52' E 007°07'0 0.0
2018-Aug-11 09:58N 60°52' E 007°07'0 0.0
2018-Aug-11 09:28N 60°52' E 007°07'0 0.0
2018-Aug-11 08:58N 60°52' E 007°07'0 0.0
2018-Aug-11 08:28N 60°52' E 007°07'0 0.0
2018-Aug-11 07:58N 60°52' E 007°07'0 0.0
2018-Aug-11 07:28N 60°52' E 007°07'0 0.0
2018-Aug-11 06:58N 60°52' E 007°07'0 0.0
2018-Aug-11 06:28N 60°52' E 007°07'0 0.0
2018-Aug-11 05:58N 60°52' E 007°07'0 0.0
2018-Aug-11 05:28N 60°52' E 007°07'0 0.0
2018-Aug-11 05:00N 60°52' E 007°07'0 0.4
2018-Aug-11 04:30N 60°52' E 007°08'4 8.1
2018-Aug-11 04:01N 60°56' E 007°10'611.2
2018-Aug-11 03:31N 61°00' E 007°03'510.0
2018-Aug-11 03:00N 61°05' E 007°00'510.4
2018-Aug-11 02:30N 61°09' E 006°53'510.9
2018-Aug-11 02:01N 61°10' E 006°42'4 6.8
2018-Aug-11 01:30N 61°09' E 006°35'510.8
2018-Aug-11 01:00N 61°06' E 006°26'611.4
2018-Aug-11 00:30N 61°07' E 006°15'611.3
2018-Aug-11 00:00N 61°08' E 006°03'611.7
2018-Aug-10 23:30N 61°08' E 005°51'612.0
2018-Aug-10 22:59N 61°07' E 005°39'612.2
2018-Aug-10 22:28N 61°04' E 005°27'612.0
2018-Aug-10 22:01N 61°05' E 005°16'611.7
2018-Aug-10 21:30N 61°05' E 005°04'612.4
2018-Aug-10 20:59N 61°01' E 004°53'611.9
2018-Aug-10 20:30N 60°57' E 004°43'611.8
2018-Aug-10 20:00N 60°52' E 004°39'611.9
2018-Aug-10 19:30N 60°50' E 004°27'5 9.4
2018-Aug-10 19:00N 60°45' E 004°30'611.5
2018-Aug-10 18:29N 60°45' E 004°42'611.4
2018-Aug-10 18:00N 60°41' E 004°50'611.8
2018-Aug-10 17:30N 60°35' E 004°54'611.8
2018-Aug-10 17:00N 60°30' E 004°59'611.5
2018-Aug-10 16:30N 60°25' E 005°05'5 9.8
2018-Aug-10 16:00N 60°24' E 005°14'2 4.4
2018-Aug-10 15:28N 60°24' E 005°19'0 0.0
2018-Aug-10 14:58N 60°24' E 005°19'0 0.0
2018-Aug-10 14:28N 60°24' E 005°19'0 0.0
2018-Aug-10 13:55N 60°24' E 005°19'0 0.0
2018-Aug-10 13:28N 60°24' E 005°19'0 0.0
2018-Aug-10 12:58N 60°24' E 005°19'0 0.0
2018-Aug-10 12:28N 60°24' E 005°19'0 0.0
2018-Aug-10 11:58N 60°24' E 005°19'0 0.0
2018-Aug-10 11:28N 60°24' E 005°19'0 0.0
2018-Aug-10 10:58N 60°24' E 005°19'0 0.0
2018-Aug-10 10:28N 60°24' E 005°19'0 0.0
2018-Aug-10 09:58N 60°24' E 005°19'0 0.0
2018-Aug-10 09:28N 60°24' E 005°19'0 0.0
2018-Aug-10 08:58N 60°24' E 005°19'0 0.0
2018-Aug-10 08:28N 60°24' E 005°19'0 0.0
2018-Aug-10 07:58N 60°24' E 005°19'0 0.0
2018-Aug-10 07:28N 60°24' E 005°19'0 0.0
2018-Aug-10 06:58N 60°24' E 005°19'0 0.0
2018-Aug-10 06:28N 60°24' E 005°19'0 0.0
2018-Aug-10 05:58N 60°24' E 005°19'0 0.0
2018-Aug-10 05:28N 60°24' E 005°19'0 0.0
2018-Aug-10 04:58N 60°24' E 005°19'0 0.8
2018-Aug-10 04:30N 60°24' E 005°18'2 4.9
2018-Aug-10 04:00N 60°24' E 005°13'5 9.8
2018-Aug-10 03:28N 60°19' E 005°12'510.8
2018-Aug-10 03:00N 60°14' E 005°10'5 9.1
2018-Aug-10 02:30N 60°10' E 005°06'5 9.5
2018-Aug-10 01:59N 60°08' E 004°57'4 8.3
2018-Aug-10 01:30N 60°06' E 004°50'510.1
2018-Aug-10 01:00N 60°01' E 004°47'510.1
2018-Aug-10 00:30N 59°57' E 004°43'510.7
2018-Aug-10 00:00N 59°52' E 004°40'6010.0
2018-Aug-09 18:01N 58°52' E 004°28'010.9
2018-Aug-09 17:59N 58°52' E 004°29'510.8
2018-Aug-09 17:30N 58°48' E 004°35'511.0
2018-Aug-09 17:00N 58°44' E 004°43'610.9
2018-Aug-09 16:28N 58°40' E 004°50'510.8
2018-Aug-09 16:00N 58°36' E 004°57'611.1
2018-Aug-09 15:30N 58°32' E 005°04'611.0
2018-Aug-09 14:59N 58°28' E 005°11'511.1
2018-Aug-09 14:30N 58°24' E 005°19'611.6
2018-Aug-09 14:00N 58°20' E 005°27'611.8
2018-Aug-09 13:30N 58°17' E 005°35'611.5
2018-Aug-09 13:01N 58°13' E 005°43'611.9
2018-Aug-09 12:30N 58°08' E 005°51'612.2
2018-Aug-09 12:00N 58°04' E 006°00'611.9
2018-Aug-09 11:30N 58°01' E 006°09'611.8
2018-Aug-09 10:59N 57°56' E 006°17'1710.7
2018-Aug-09 09:24N 57°47' E 006°44'511.2
2018-Aug-09 08:58N 57°47' E 006°53'511.7
2018-Aug-09 08:30N 57°47' E 007°03'612.0
2018-Aug-09 07:59N 57°47' E 007°15'612.3
2018-Aug-09 07:29N 57°47' E 007°26'612.3
2018-Aug-09 07:00N 57°47' E 007°38'611.8
2018-Aug-09 06:30N 57°47' E 007°49'611.9
2018-Aug-09 06:00N 57°48' E 007°59'612.7
2018-Aug-09 05:30N 57°51' E 008°10'613.1
2018-Aug-09 05:00N 57°54' E 008°21'612.5
2018-Aug-09 04:30N 57°57' E 008°32'612.2
2018-Aug-09 03:59N 57°60' E 008°42'612.2
2018-Aug-09 03:30N 58°04' E 008°50'612.1
2018-Aug-09 03:00N 58°08' E 008°58'612.0
2018-Aug-09 02:30N 58°13' E 009°05'611.5
2018-Aug-09 01:57N 58°17' E 009°14'2711.2
2018-Aug-08 23:35N 58°37' E 009°48'211.9
2018-Aug-08 23:25N 58°38' E 009°51'511.9
2018-Aug-08 23:00N 58°42' E 009°58'612.2
2018-Aug-08 22:30N 58°45' E 010°07'612.7
2018-Aug-08 22:00N 58°50' E 010°17'612.5
2018-Aug-08 21:30N 58°54' E 010°26'611.4
2018-Aug-08 21:00N 58°57' E 010°34'611.9
2018-Aug-08 20:30N 59°03' E 010°35'5 9.9
2018-Aug-08 20:00N 59°08' E 010°36'611.3
2018-Aug-08 19:30N 59°14' E 010°37'612.3
2018-Aug-08 19:00N 59°20' E 010°35'612.4
2018-Aug-08 18:30N 59°26' E 010°33'611.7
2018-Aug-08 18:00N 59°32' E 010°35'612.0
2018-Aug-08 17:30N 59°37' E 010°38'612.9
2018-Aug-08 17:00N 59°44' E 010°34'612.2
2018-Aug-08 16:30N 59°50' E 010°35'611.2
2018-Aug-08 16:00N 59°54' E 010°43'1 2.2
2018-Aug-08 15:29N 59°54' E 010°45'0 0.0
2018-Aug-08 14:59N 59°54' E 010°45'0 0.0
2018-Aug-08 14:29N 59°54' E 010°45'0 0.0
2018-Aug-08 13:59N 59°54' E 010°45'0 0.0
2018-Aug-08 13:29N 59°54' E 010°45'0 0.0
2018-Aug-08 12:59N 59°54' E 010°45'0 0.0
2018-Aug-08 12:29N 59°54' E 010°45'0 0.0
2018-Aug-08 11:59N 59°54' E 010°45'0 0.0
2018-Aug-08 11:29N 59°54' E 010°45'0 0.0
2018-Aug-08 10:59N 59°54' E 010°45'0 0.0
2018-Aug-08 10:29N 59°54' E 010°45'0 0.0
2018-Aug-08 09:59N 59°54' E 010°45'0 0.0
2018-Aug-08 09:29N 59°54' E 010°45'0 0.0
2018-Aug-08 08:59N 59°54' E 010°45'0 0.0
2018-Aug-08 08:29N 59°54' E 010°45'0 0.0
2018-Aug-08 07:59N 59°54' E 010°45'0 0.0
2018-Aug-08 07:29N 59°54' E 010°45'0 0.0
2018-Aug-08 06:59N 59°54' E 010°45'0 0.0
2018-Aug-08 06:29N 59°54' E 010°45'0 0.0
2018-Aug-08 05:59N 59°54' E 010°45'0 0.0
2018-Aug-08 05:29N 59°54' E 010°45'0 0.0
2018-Aug-08 04:59N 59°54' E 010°45'0 0.0
2018-Aug-08 04:29N 59°54' E 010°45'0 0.0
2018-Aug-08 03:59N 59°54' E 010°45'0 0.0
2018-Aug-08 03:29N 59°54' E 010°45'0 0.0
2018-Aug-08 02:59N 59°54' E 010°45'0 0.0
2018-Aug-08 02:29N 59°54' E 010°45'0 0.0
2018-Aug-08 01:59N 59°54' E 010°45'0 0.0
2018-Aug-08 01:29N 59°54' E 010°45'0 0.0
2018-Aug-08 00:59N 59°54' E 010°45'0 0.0
2018-Aug-08 00:29N 59°54' E 010°45'0 0.0
2018-Aug-07 23:59N 59°54' E 010°45'0 0.0
2018-Aug-07 23:29N 59°54' E 010°45'0 0.0
2018-Aug-07 22:59N 59°54' E 010°45'  
Track history (hours):
 
Tides and Currents Weather Stations Pressure Air Temp Water Temp Dewpoint Dewpoint Depression Visibility Wind Speed Wind Dir Waves Ship Positions

Seabourn Spirit

Operator: Cunard Seabourn

Last reported at 2018-Aug-17 22:42 UTC. Time now 2018-Aug-18 00:46 UTC.
Position N 56°30' W 002°06'.

Length 133 m; draft 5.7 m.

Type: Ship. MMSI: 311083000.

Date/timePositionNaut miles runAvg speedWind from/ knotsBaromVisibWave heightAir tempDewpointWater temp
2018-Aug-17 22:42N 56°30' W 002°06'312.8
2018-Aug-17 22:30N 56°28' W 002°09'612.6
2018-Aug-17 22:00N 56°24' W 002°16'712.5
2018-Aug-17 21:24N 56°18' W 002°25'512.5
2018-Aug-17 21:00N 56°15' W 002°32'612.8
2018-Aug-17 20:31N 56°11' W 002°41'612.7
2018-Aug-17 20:00N 56°07' W 002°50'612.6
2018-Aug-17 19:30N 56°03' W 002°59'611.4
2018-Aug-17 19:00N 56°01' W 003°08'2 3.9
2018-Aug-17 18:30N 55°59' W 003°11'0 0.6
2018-Aug-17 17:58N 55°59' W 003°11'0 0.3
2018-Aug-17 17:29N 55°59' W 003°11'0 0.0
2018-Aug-17 16:59N 55°59' W 003°11'0 0.0
2018-Aug-17 16:29N 55°59' W 003°11'0 0.0
2018-Aug-17 15:58N 55°59' W 003°11'0 0.0
2018-Aug-17 15:28N 55°59' W 003°11'0 0.0
2018-Aug-17 14:58N 55°59' W 003°11'0 0.0
2018-Aug-17 13:59N 55°59' W 003°11'0 0.0
2018-Aug-17 13:28N 55°59' W 003°11'0 0.0
2018-Aug-17 12:59N 55°59' W 003°11'0 0.0
2018-Aug-17 12:29N 55°59' W 003°11'0 0.0
2018-Aug-17 11:59N 55°59' W 003°11'0 0.0
2018-Aug-17 11:29N 55°59' W 003°11'0 0.0
2018-Aug-17 10:58N 55°59' W 003°11'0 0.0
2018-Aug-17 10:28N 55°59' W 003°11'0 0.0
2018-Aug-17 09:58N 55°59' W 003°11'0 0.0
2018-Aug-17 09:28N 55°59' W 003°11'0 0.0
2018-Aug-17 08:58N 55°59' W 003°11'0 0.0
2018-Aug-17 08:28N 55°59' W 003°11'0 0.0
2018-Aug-17 07:58N 55°59' W 003°11'0 0.0
2018-Aug-17 07:28N 55°59' W 003°11'0 0.0
2018-Aug-17 06:58N 55°59' W 003°11'0 0.0
2018-Aug-17 06:28N 55°59' W 003°11'0 0.0
2018-Aug-17 05:58N 55°59' W 003°11'0 0.0
2018-Aug-17 05:28N 55°59' W 003°11'0 0.0
2018-Aug-17 04:58N 55°59' W 003°11'0 0.0
2018-Aug-17 04:28N 55°59' W 003°11'0 0.0
2018-Aug-17 03:58N 55°59' W 003°11'0 0.0
2018-Aug-17 03:28N 55°59' W 003°11'0 0.0
2018-Aug-17 02:58N 55°59' W 003°11'0 0.0
2018-Aug-17 02:28N 55°59' W 003°11'0 0.0
2018-Aug-17 01:58N 55°59' W 003°11'0 0.0
2018-Aug-17 01:28N 55°59' W 003°11'0 0.0
2018-Aug-17 00:58N 55°59' W 003°11'0 0.0
2018-Aug-17 00:28N 55°59' W 003°11'0 0.0
2018-Aug-16 23:58N 55°59' W 003°11'0 0.0
2018-Aug-16 23:28N 55°59' W 003°11'0 0.0
2018-Aug-16 22:58N 55°59' W 003°11'0 0.0
2018-Aug-16 22:28N 55°59' W 003°11'0 0.0
2018-Aug-16 21:58N 55°59' W 003°11'0 0.0
2018-Aug-16 21:28N 55°59' W 003°11'0 0.0
2018-Aug-16 20:58N 55°59' W 003°11'0 0.0
2018-Aug-16 20:28N 55°59' W 003°11'0 0.0
2018-Aug-16 19:58N 55°59' W 003°11'0 0.0
2018-Aug-16 19:28N 55°59' W 003°11'0 0.0
2018-Aug-16 18:58N 55°59' W 003°11'0 0.0
2018-Aug-16 18:28N 55°59' W 003°11'0 0.0
2018-Aug-16 17:58N 55°59' W 003°11'0 0.0
2018-Aug-16 17:28N 55°59' W 003°11'0 0.0
2018-Aug-16 16:58N 55°59' W 003°11'0 0.0
2018-Aug-16 16:28N 55°59' W 003°11'0 0.0
2018-Aug-16 15:58N 55°59' W 003°11'0 0.0
2018-Aug-16 15:28N 55°59' W 003°11'0 0.0
2018-Aug-16 14:58N 55°59' W 003°11'0 0.0
2018-Aug-16 14:29N 55°59' W 003°11'0 0.7
2018-Aug-16 14:00N 55°59' W 003°11'0 0.2
2018-Aug-16 13:30N 55°59' W 003°11'1 2.1
2018-Aug-16 13:00N 56°00' W 003°12'1 2.3
2018-Aug-16 12:30N 56°01' W 003°10'4 7.2
2018-Aug-16 12:00N 56°02' W 003°04'4 8.4
2018-Aug-16 11:31N 56°04' W 002°58'5 9.7
2018-Aug-16 11:01N 56°07' W 002°51'5 9.8
2018-Aug-16 10:30N 56°10' W 002°43'510.3
2018-Aug-16 10:00N 56°13' W 002°36'5 9.6
2018-Aug-16 09:30N 56°16' W 002°29'510.7
2018-Aug-16 09:00N 56°19' W 002°22'611.1
2018-Aug-16 08:30N 56°23' W 002°15'3411.3
2018-Aug-16 05:32N 56°53' W 001°47'112.4
2018-Aug-16 05:30N 56°54' W 001°47'612.2
2018-Aug-16 05:01N 56°59' W 001°43'612.5
2018-Aug-16 04:30N 57°05' W 001°40'815.3
2018-Aug-16 04:00N 57°13' W 001°39'815.4
2018-Aug-16 03:30N 57°20' W 001°38'816.0
2018-Aug-16 03:01N 57°28' W 001°37'816.2
2018-Aug-16 02:30N 57°36' W 001°40'63 2.2
2018-Aug-14 21:48N 58°27' W 002°52'3 9.6
2018-Aug-14 21:31N 58°30' W 002°50'5 9.1
2018-Aug-14 21:00N 58°34' W 002°47'4 8.7
2018-Aug-14 20:30N 58°38' W 002°45'4 8.6
2018-Aug-14 20:00N 58°42' W 002°43'4 8.3
2018-Aug-14 19:30N 58°46' W 002°40'6 8.3
2018-Aug-14 18:47N 58°52' W 002°37'7 9.9
2018-Aug-14 18:02N 58°59' W 002°39'0 9.9
2018-Aug-14 18:00N 58°59' W 002°40'510.4
2018-Aug-14 17:30N 59°01' W 002°50'4 8.5
2018-Aug-14 17:00N 59°01' W 002°58'1 1.9
2018-Aug-14 16:30N 58°60' W 002°58'0 0.0
2018-Aug-14 16:00N 58°60' W 002°58'0 0.0
2018-Aug-14 15:30N 58°60' W 002°58'0 0.0
2018-Aug-14 15:00N 58°60' W 002°58'0 0.0
2018-Aug-14 14:30N 58°60' W 002°58'0 0.0
2018-Aug-14 14:00N 58°60' W 002°58'0 0.0
2018-Aug-14 13:30N 58°60' W 002°58'0 0.0
2018-Aug-14 13:00N 58°60' W 002°58'0 0.0
2018-Aug-14 12:30N 58°60' W 002°58'0 0.0
2018-Aug-14 12:00N 58°60' W 002°58'0 0.0
2018-Aug-14 11:30N 58°60' W 002°58'0 0.0
2018-Aug-14 11:00N 58°60' W 002°58'0 0.0
2018-Aug-14 10:30N 58°60' W 002°58'0 0.0
2018-Aug-14 10:00N 58°60' W 002°58'1 2.4
2018-Aug-14 09:31N 59°01' W 002°57'5 9.0
2018-Aug-14 09:00N 59°00' W 002°49'5 9.0
2018-Aug-14 08:30N 58°60' W 002°40'5 8.5
2018-Aug-14 07:53N 58°55' W 002°35'3 9.4
2018-Aug-14 07:30N 58°51' W 002°37'5 9.0
2018-Aug-14 07:00N 58°48' W 002°42'510.2
2018-Aug-14 06:30N 58°44' W 002°48'510.3
2018-Aug-14 06:00N 58°43' W 002°58'4 8.4
2018-Aug-14 05:30N 58°43' W 003°06'2 4.3
2018-Aug-14 05:00N 58°43' W 003°10'4 7.3
2018-Aug-14 04:30N 58°43' W 003°17'4 8.5
2018-Aug-14 04:00N 58°43' W 003°25'810.7
2018-Aug-14 03:13N 58°43' W 003°42'  
2018-Aug-11 19:55N 60°49' E 004°17'512.7
2018-Aug-11 19:30N 60°50' E 004°28'611.9
2018-Aug-11 19:00N 60°52' E 004°39'611.4
2018-Aug-11 18:30N 60°57' E 004°43'612.9
2018-Aug-11 18:00N 61°02' E 004°53'612.1
2018-Aug-11 17:30N 61°05' E 005°03'612.1
2018-Aug-11 17:00N 61°05' E 005°16'612.7
2018-Aug-11 16:30N 61°04' E 005°29'612.8
2018-Aug-11 16:00N 61°07' E 005°41'612.5
2018-Aug-11 15:30N 61°08' E 005°54'612.9
2018-Aug-11 15:00N 61°08' E 006°07'612.7
2018-Aug-11 14:30N 61°07' E 006°20'611.1
2018-Aug-11 14:00N 61°07' E 006°31'510.5
2018-Aug-11 13:29N 61°11' E 006°40'612.1
2018-Aug-11 12:59N 61°09' E 006°51'612.2
2018-Aug-11 12:30N 61°05' E 006°60'612.1
2018-Aug-11 12:00N 60°59' E 007°04'510.7
2018-Aug-11 11:30N 60°54' E 007°10'3 5.2
2018-Aug-11 10:58N 60°52' E 007°07'0 0.0
2018-Aug-11 10:28N 60°52' E 007°07'0 0.0
2018-Aug-11 09:58N 60°52' E 007°07'0 0.0
2018-Aug-11 09:28N 60°52' E 007°07'0 0.0
2018-Aug-11 08:58N 60°52' E 007°07'0 0.0
2018-Aug-11 08:28N 60°52' E 007°07'0 0.0
2018-Aug-11 07:58N 60°52' E 007°07'0 0.0
2018-Aug-11 07:28N 60°52' E 007°07'0 0.0
2018-Aug-11 06:58N 60°52' E 007°07'0 0.0
2018-Aug-11 06:28N 60°52' E 007°07'0 0.0
2018-Aug-11 05:58N 60°52' E 007°07'0 0.0
2018-Aug-11 05:28N 60°52' E 007°07'0 0.0
2018-Aug-11 05:00N 60°52' E 007°07'0 0.4
2018-Aug-11 04:30N 60°52' E 007°08'4 8.1
2018-Aug-11 04:01N 60°56' E 007°10'611.2
2018-Aug-11 03:31N 61°00' E 007°03'510.0
2018-Aug-11 03:00N 61°05' E 007°00'510.4
2018-Aug-11 02:30N 61°09' E 006°53'510.9
2018-Aug-11 02:01N 61°10' E 006°42'4 6.8
2018-Aug-11 01:30N 61°09' E 006°35'510.8
2018-Aug-11 01:00N 61°06' E 006°26'611.4
2018-Aug-11 00:30N 61°07' E 006°15'611.3
2018-Aug-11 00:00N 61°08' E 006°03'611.7
2018-Aug-10 23:30N 61°08' E 005°51'612.0
2018-Aug-10 22:59N 61°07' E 005°39'612.2
2018-Aug-10 22:28N 61°04' E 005°27'612.0
2018-Aug-10 22:01N 61°05' E 005°16'611.7
2018-Aug-10 21:30N 61°05' E 005°04'612.4
2018-Aug-10 20:59N 61°01' E 004°53'611.9
2018-Aug-10 20:30N 60°57' E 004°43'611.8
2018-Aug-10 20:00N 60°52' E 004°39'611.9
2018-Aug-10 19:30N 60°50' E 004°27'5 9.4
2018-Aug-10 19:00N 60°45' E 004°30'611.5
2018-Aug-10 18:29N 60°45' E 004°42'611.4
2018-Aug-10 18:00N 60°41' E 004°50'611.8
2018-Aug-10 17:30N 60°35' E 004°54'611.8
2018-Aug-10 17:00N 60°30' E 004°59'611.5
2018-Aug-10 16:30N 60°25' E 005°05'5 9.8
2018-Aug-10 16:00N 60°24' E 005°14'2 4.4
2018-Aug-10 15:28N 60°24' E 005°19'0 0.0
2018-Aug-10 14:58N 60°24' E 005°19'0 0.0
2018-Aug-10 14:28N 60°24' E 005°19'0 0.0
2018-Aug-10 13:55N 60°24' E 005°19'0 0.0
2018-Aug-10 13:28N 60°24' E 005°19'0 0.0
2018-Aug-10 12:58N 60°24' E 005°19'0 0.0
2018-Aug-10 12:28N 60°24' E 005°19'0 0.0
2018-Aug-10 11:58N 60°24' E 005°19'0 0.0
2018-Aug-10 11:28N 60°24' E 005°19'0 0.0
2018-Aug-10 10:58N 60°24' E 005°19'0 0.0
2018-Aug-10 10:28N 60°24' E 005°19'0 0.0
2018-Aug-10 09:58N 60°24' E 005°19'0 0.0
2018-Aug-10 09:28N 60°24' E 005°19'0 0.0
2018-Aug-10 08:58N 60°24' E 005°19'0 0.0
2018-Aug-10 08:28N 60°24' E 005°19'0 0.0
2018-Aug-10 07:58N 60°24' E 005°19'0 0.0
2018-Aug-10 07:28N 60°24' E 005°19'0 0.0
2018-Aug-10 06:58N 60°24' E 005°19'0 0.0
2018-Aug-10 06:28N 60°24' E 005°19'0 0.0
2018-Aug-10 05:58N 60°24' E 005°19'0 0.0
2018-Aug-10 05:28N 60°24' E 005°19'0 0.0
2018-Aug-10 04:58N 60°24' E 005°19'0 0.8
2018-Aug-10 04:30N 60°24' E 005°18'2 4.9
2018-Aug-10 04:00N 60°24' E 005°13'5 9.8
2018-Aug-10 03:28N 60°19' E 005°12'510.8
2018-Aug-10 03:00N 60°14' E 005°10'5 9.1
2018-Aug-10 02:30N 60°10' E 005°06'5 9.5
2018-Aug-10 01:59N 60°08' E 004°57'4 8.3
2018-Aug-10 01:30N 60°06' E 004°50'510.1
2018-Aug-10 01:00N 60°01' E 004°47'510.1
2018-Aug-10 00:30N 59°57' E 004°43'510.7
2018-Aug-10 00:00N 59°52' E 004°40'6010.0
2018-Aug-09 18:01N 58°52' E 004°28'010.9
2018-Aug-09 17:59N 58°52' E 004°29'510.8
2018-Aug-09 17:30N 58°48' E 004°35'511.0
2018-Aug-09 17:00N 58°44' E 004°43'610.9
2018-Aug-09 16:28N 58°40' E 004°50'510.8
2018-Aug-09 16:00N 58°36' E 004°57'611.1
2018-Aug-09 15:30N 58°32' E 005°04'611.0
2018-Aug-09 14:59N 58°28' E 005°11'511.1
2018-Aug-09 14:30N 58°24' E 005°19'611.6
2018-Aug-09 14:00N 58°20' E 005°27'611.8
2018-Aug-09 13:30N 58°17' E 005°35'611.5
2018-Aug-09 13:01N 58°13' E 005°43'611.9
2018-Aug-09 12:30N 58°08' E 005°51'612.2
2018-Aug-09 12:00N 58°04' E 006°00'611.9
2018-Aug-09 11:30N 58°01' E 006°09'611.8
2018-Aug-09 10:59N 57°56' E 006°17'1710.7
2018-Aug-09 09:24N 57°47' E 006°44'511.2
2018-Aug-09 08:58N 57°47' E 006°53'511.7
2018-Aug-09 08:30N 57°47' E 007°03'612.0
2018-Aug-09 07:59N 57°47' E 007°15'612.3
2018-Aug-09 07:29N 57°47' E 007°26'612.3
2018-Aug-09 07:00N 57°47' E 007°38'611.8
2018-Aug-09 06:30N 57°47' E 007°49'611.9
2018-Aug-09 06:00N 57°48' E 007°59'612.7
2018-Aug-09 05:30N 57°51' E 008°10'613.1
2018-Aug-09 05:00N 57°54' E 008°21'612.5
2018-Aug-09 04:30N 57°57' E 008°32'612.2
2018-Aug-09 03:59N 57°60' E 008°42'612.2
2018-Aug-09 03:30N 58°04' E 008°50'612.1
2018-Aug-09 03:00N 58°08' E 008°58'612.0
2018-Aug-09 02:30N 58°13' E 009°05'611.5
2018-Aug-09 01:57N 58°17' E 009°14'2711.2
2018-Aug-08 23:35N 58°37' E 009°48'211.9
2018-Aug-08 23:25N 58°38' E 009°51'511.9
2018-Aug-08 23:00N 58°42' E 009°58'612.2
2018-Aug-08 22:30N 58°45' E 010°07'612.7
2018-Aug-08 22:00N 58°50' E 010°17'612.5
2018-Aug-08 21:30N 58°54' E 010°26'611.4
2018-Aug-08 21:00N 58°57' E 010°34'611.9
2018-Aug-08 20:30N 59°03' E 010°35'5 9.9
2018-Aug-08 20:00N 59°08' E 010°36'611.3
2018-Aug-08 19:30N 59°14' E 010°37'612.3
2018-Aug-08 19:00N 59°20' E 010°35'612.4
2018-Aug-08 18:30N 59°26' E 010°33'611.7
2018-Aug-08 18:00N 59°32' E 010°35'612.0
2018-Aug-08 17:30N 59°37' E 010°38'612.9
2018-Aug-08 17:00N 59°44' E 010°34'612.2
2018-Aug-08 16:30N 59°50' E 010°35'611.2
2018-Aug-08 16:00N 59°54' E 010°43'1 2.2
2018-Aug-08 15:29N 59°54' E 010°45'0 0.0
2018-Aug-08 14:59N 59°54' E 010°45'0 0.0
2018-Aug-08 14:29N 59°54' E 010°45'0 0.0
2018-Aug-08 13:59N 59°54' E 010°45'0 0.0
2018-Aug-08 13:29N 59°54' E 010°45'0 0.0
2018-Aug-08 12:59N 59°54' E 010°45'0 0.0
2018-Aug-08 12:29N 59°54' E 010°45'0 0.0
2018-Aug-08 11:59N 59°54' E 010°45'0 0.0
2018-Aug-08 11:29N 59°54' E 010°45'0 0.0
2018-Aug-08 10:59N 59°54' E 010°45'0 0.0
2018-Aug-08 10:29N 59°54' E 010°45'0 0.0
2018-Aug-08 09:59N 59°54' E 010°45'0 0.0
2018-Aug-08 09:29N 59°54' E 010°45'0 0.0
2018-Aug-08 08:59N 59°54' E 010°45'0 0.0
2018-Aug-08 08:29N 59°54' E 010°45'0 0.0
2018-Aug-08 07:59N 59°54' E 010°45'0 0.0
2018-Aug-08 07:29N 59°54' E 010°45'0 0.0
2018-Aug-08 06:59N 59°54' E 010°45'0 0.0
2018-Aug-08 06:29N 59°54' E 010°45'0 0.0
2018-Aug-08 05:59N 59°54' E 010°45'0 0.0
2018-Aug-08 05:29N 59°54' E 010°45'0 0.0
2018-Aug-08 04:59N 59°54' E 010°45'0 0.0
2018-Aug-08 04:29N 59°54' E 010°45'0 0.0
2018-Aug-08 03:59N 59°54' E 010°45'0 0.0
2018-Aug-08 03:29N 59°54' E 010°45'0 0.0
2018-Aug-08 02:59N 59°54' E 010°45'0 0.0
2018-Aug-08 02:29N 59°54' E 010°45'0 0.0
2018-Aug-08 01:59N 59°54' E 010°45'0 0.0
2018-Aug-08 01:29N 59°54' E 010°45'0 0.0
2018-Aug-08 00:59N 59°54' E 010°45'0 0.0
2018-Aug-08 00:29N 59°54' E 010°45'0 0.0
2018-Aug-07 23:59N 59°54' E 010°45'0 0.0
2018-Aug-07 23:29N 59°54' E 010°45'0 0.0
2018-Aug-07 22:59N 59°54' E 010°45'  

Dump ship's entire track history